createdAt,value
2022-11-04T00:04:21.467Z,85.48
2022-11-04T00:14:26.187Z,85.29
2022-11-04T00:24:43.922Z,85.19
2022-11-04T00:34:48.790Z,85.08
2022-11-04T00:44:52.023Z,84.77
2022-11-04T00:54:56.488Z,84.92
2022-11-04T01:05:00.031Z,84.92
2022-11-04T01:15:05.311Z,84.63
2022-11-04T01:25:09.797Z,84.87
2022-11-04T01:35:14.445Z,83.48
2022-11-04T01:45:19.849Z,82.72
2022-11-04T01:55:32.629Z,82.58
2022-11-04T02:05:36.160Z,82.91
2022-11-04T02:15:49.556Z,83.01
2022-11-04T02:26:34.018Z,83.38
2022-11-04T02:36:50.191Z,83.42
2022-11-04T02:47:00.777Z,83.39
2022-11-04T02:57:12.410Z,83.52
2022-11-04T03:07:21.232Z,83.62
2022-11-04T03:17:31.784Z,83.78
2022-11-04T03:27:42.142Z,83.72
2022-11-04T03:37:49.733Z,84.06
2022-11-04T03:47:53.197Z,84.29
2022-11-04T03:58:02.635Z,84.13
2022-11-04T04:08:20.357Z,84.24
2022-11-04T04:18:34.389Z,84.21
2022-11-04T04:28:39.005Z,84.00
2022-11-04T04:39:02.714Z,83.56
2022-11-04T04:49:06.531Z,83.48
2022-11-04T04:59:11.744Z,83.83
2022-11-04T05:09:14.947Z,83.87
2022-11-04T05:19:19.568Z,84.00
2022-11-04T05:29:22.703Z,84.01
2022-11-04T05:39:27.885Z,83.44
2022-11-04T05:49:33.778Z,83.27
2022-11-04T05:59:38.466Z,82.51
2022-11-04T06:09:41.657Z,82.02
2022-11-04T06:19:46.509Z,82.27
2022-11-04T06:29:49.633Z,81.83
2022-11-04T06:39:56.867Z,81.71
2022-11-04T06:49:59.956Z,81.64
2022-11-04T07:00:05.481Z,81.76
2022-11-04T07:10:09.345Z,81.64
2022-11-04T07:20:13.798Z,81.16
2022-11-04T07:30:20.837Z,80.64
2022-11-04T07:40:26.619Z,79.67
2022-11-04T07:50:29.813Z,79.71
2022-11-04T08:00:34.525Z,79.88
2022-11-04T08:10:42.011Z,79.65
2022-11-04T08:20:50.301Z,79.23
2022-11-04T08:30:55.426Z,78.11
2022-11-04T08:41:00.842Z,77.67
2022-11-04T08:51:06.694Z,76.99
2022-11-04T09:01:13.055Z,77.67
2022-11-04T09:11:19.121Z,79.09
2022-11-04T09:21:27.524Z,79.34
2022-11-04T09:31:31.078Z,80.30
2022-11-04T09:41:57.736Z,81.51
2022-11-04T09:52:05.728Z,82.16
2022-11-04T10:02:37.845Z,81.82
2022-11-04T10:12:54.482Z,80.19
2022-11-04T10:23:02.779Z,80.27
2022-11-04T10:33:14.366Z,80.95
2022-11-04T10:43:27.268Z,82.05
2022-11-04T10:53:32.706Z,83.69
2022-11-04T11:03:37.648Z,85.08
2022-11-04T11:13:43.374Z,84.72
2022-11-04T11:23:51.471Z,83.75
2022-11-04T11:33:58.300Z,84.59
2022-11-04T11:44:09.123Z,83.30
2022-11-04T11:54:26.302Z,82.81
2022-11-04T12:15:20.772Z,81.03
2022-11-04T12:25:36.763Z,80.53
2022-11-04T12:35:52.207Z,80.50
2022-11-04T12:46:10.961Z,80.69
2022-11-04T12:56:18.194Z,80.37
2022-11-04T13:06:27.635Z,80.79
2022-11-04T13:27:25.352Z,80.43
2022-11-04T13:37:34.476Z,80.29
2022-11-04T13:47:50.807Z,78.78
2022-11-04T13:57:58.133Z,78.87
2022-11-04T14:08:14.650Z,78.84
2022-11-04T14:18:33.223Z,79.14
2022-11-04T14:28:39.784Z,79.65
2022-11-04T14:38:43.866Z,79.86
2022-11-04T14:48:52.837Z,79.24
2022-11-04T14:58:57.736Z,79.70
2022-11-04T15:09:05.472Z,79.96
2022-11-04T15:19:12.719Z,79.94
2022-11-04T15:29:19.444Z,80.33
2022-11-04T15:39:25.672Z,80.61
2022-11-04T15:49:33.044Z,81.44
2022-11-04T15:59:43.648Z,82.50
2022-11-04T16:09:50.016Z,82.84
2022-11-04T16:19:55.706Z,81.86
2022-11-04T16:30:10.861Z,81.99
2022-11-04T16:40:15.046Z,82.07
2022-11-04T16:50:20.073Z,81.09
2022-11-04T17:00:24.687Z,80.31
2022-11-04T17:10:29.598Z,79.81
2022-11-04T17:20:35.621Z,78.22
2022-11-04T17:30:41.104Z,77.37
2022-11-04T17:41:05.185Z,75.89
2022-11-04T17:51:11.280Z,75.50
2022-11-04T18:01:16.636Z,77.53
2022-11-04T18:11:41.674Z,76.73
2022-11-04T18:21:44.933Z,78.01
2022-11-04T18:31:49.998Z,77.57
2022-11-04T18:41:53.201Z,77.30
2022-11-04T18:51:57.844Z,74.22
2022-11-04T19:02:00.854Z,74.71
2022-11-04T19:12:24.473Z,74.40
2022-11-04T19:22:27.615Z,76.14
2022-11-04T19:32:31.997Z,76.98
2022-11-04T19:42:53.615Z,78.05
2022-11-04T19:52:58.139Z,78.55
2022-11-04T20:03:01.285Z,78.52
2022-11-04T20:13:24.731Z,78.79
2022-11-04T20:23:27.650Z,79.12
2022-11-04T20:33:32.238Z,79.67
2022-11-04T20:43:36.883Z,81.01
2022-11-04T20:53:41.762Z,81.87
2022-11-04T21:03:47.598Z,82.17
2022-11-04T21:13:58.168Z,82.07
2022-11-04T21:24:03.048Z,82.83
2022-11-04T21:34:07.766Z,82.97
2022-11-04T21:44:13.127Z,83.69
2022-11-04T21:54:20.719Z,84.21
2022-11-04T22:04:27.469Z,84.92
2022-11-04T22:14:36.253Z,85.75
2022-11-04T22:24:39.252Z,86.88
2022-11-04T22:34:48.150Z,87.66
2022-11-04T22:44:51.076Z,88.03
2022-11-04T22:55:26.479Z,87.60
2022-11-04T23:05:31.946Z,87.53
2022-11-04T23:15:57.650Z,88.31
2022-11-04T23:26:09.683Z,89.35
2022-11-04T23:36:33.505Z,89.15
2022-11-04T23:46:55.292Z,88.15
2022-11-04T23:57:19.503Z,87.90
